sensor_id;sensor_type;location;lat;lon;timestamp;pressure;altitude;pressure_sealevel;temperature;humidity
55460;BME280;41326;45.302;-122.946;2023-01-30T00:00:25;102445.61;;;17.70;42.67
55460;BME280;41326;45.302;-122.946;2023-01-30T00:02:55;102451.86;;;17.77;42.54
55460;BME280;41326;45.302;-122.946;2023-01-30T00:05:26;102450.05;;;17.81;42.74
55460;BME280;41326;45.302;-122.946;2023-01-30T00:07:56;102457.53;;;17.79;43.14
55460;BME280;41326;45.302;-122.946;2023-01-30T00:10:27;102456.53;;;17.76;43.54
55460;BME280;41326;45.302;-122.946;2023-01-30T00:12:57;102453.08;;;17.71;43.94
55460;BME280;41326;45.302;-122.946;2023-01-30T00:15:27;102447.76;;;17.68;44.39
55460;BME280;41326;45.302;-122.946;2023-01-30T00:17:58;102442.98;;;17.69;44.57
55460;BME280;41326;45.302;-122.946;2023-01-30T00:20:28;102444.07;;;17.63;44.67
55460;BME280;41326;45.302;-122.946;2023-01-30T00:22:59;102442.28;;;17.62;44.62
55460;BME280;41326;45.302;-122.946;2023-01-30T00:25:29;102441.87;;;17.62;44.71
55460;BME280;41326;45.302;-122.946;2023-01-30T00:27:59;102449.88;;;17.62;44.90
55460;BME280;41326;45.302;-122.946;2023-01-30T00:30:30;102445.75;;;17.59;45.00
55460;BME280;41326;45.302;-122.946;2023-01-30T00:33:01;102446.83;;;17.56;45.22
55460;BME280;41326;45.302;-122.946;2023-01-30T00:35:32;102436.89;;;17.54;45.25
55460;BME280;41326;45.302;-122.946;2023-01-30T00:38:02;102436.29;;;17.49;45.61
55460;BME280;41326;45.302;-122.946;2023-01-30T00:40:33;102438.66;;;17.43;45.40
55460;BME280;41326;45.302;-122.946;2023-01-30T00:43:02;102437.54;;;17.44;45.20
55460;BME280;41326;45.302;-122.946;2023-01-30T00:45:32;102441.64;;;17.53;44.72
55460;BME280;41326;45.302;-122.946;2023-01-30T00:48:02;102448.77;;;17.68;44.16
55460;BME280;41326;45.302;-122.946;2023-01-30T00:50:33;102456.35;;;17.80;44.20
55460;BME280;41326;45.302;-122.946;2023-01-30T00:53:03;102461.21;;;17.91;44.02
55460;BME280;41326;45.302;-122.946;2023-01-30T00:55:33;102462.50;;;18.04;43.73
55460;BME280;41326;45.302;-122.946;2023-01-30T00:58:03;102461.80;;;18.12;43.59
55460;BME280;41326;45.302;-122.946;2023-01-30T01:00:34;102455.92;;;18.23;43.47
55460;BME280;41326;45.302;-122.946;2023-01-30T01:03:05;102455.81;;;18.24;43.42
55460;BME280;41326;45.302;-122.946;2023-01-30T01:05:35;102457.91;;;18.32;43.39
55460;BME280;41326;45.302;-122.946;2023-01-30T01:08:16;102459.54;;;18.41;43.02
55460;BME280;41326;45.302;-122.946;2023-01-30T01:10:35;102459.58;;;18.43;42.97
55460;BME280;41326;45.302;-122.946;2023-01-30T01:13:06;102462.99;;;18.35;43.38
55460;BME280;41326;45.302;-122.946;2023-01-30T01:15:36;102464.30;;;18.39;43.51
55460;BME280;41326;45.302;-122.946;2023-01-30T01:18:07;102464.98;;;18.43;43.43
55460;BME280;41326;45.302;-122.946;2023-01-30T01:20:36;102468.24;;;18.47;43.52
55460;BME280;41326;45.302;-122.946;2023-01-30T01:23:08;102468.04;;;18.51;43.71
55460;BME280;41326;45.302;-122.946;2023-01-30T01:25:37;102472.87;;;18.52;43.87
55460;BME280;41326;45.302;-122.946;2023-01-30T01:28:09;102479.60;;;18.47;43.85
55460;BME280;41326;45.302;-122.946;2023-01-30T01:30:38;102472.59;;;18.51;43.90
55460;BME280;41326;45.302;-122.946;2023-01-30T01:33:09;102476.36;;;18.53;43.94
55460;BME280;41326;45.302;-122.946;2023-01-30T01:35:39;102476.29;;;18.64;44.03
55460;BME280;41326;45.302;-122.946;2023-01-30T01:38:10;102481.24;;;18.75;43.88
55460;BME280;41326;45.302;-122.946;2023-01-30T01:40:44;102480.20;;;18.75;44.04
55460;BME280;41326;45.302;-122.946;2023-01-30T01:43:20;102479.04;;;18.69;44.81
55460;BME280;41326;45.302;-122.946;2023-01-30T01:45:40;102484.31;;;18.65;45.60
55460;BME280;41326;45.302;-122.946;2023-01-30T01:48:15;102481.52;;;18.62;46.23
55460;BME280;41326;45.302;-122.946;2023-01-30T01:50:46;102479.61;;;18.60;46.86
55460;BME280;41326;45.302;-122.946;2023-01-30T01:53:11;102481.17;;;18.64;47.43
55460;BME280;41326;45.302;-122.946;2023-01-30T01:55:41;102484.14;;;18.75;47.92
55460;BME280;41326;45.302;-122.946;2023-01-30T01:58:14;102490.42;;;18.88;48.92
55460;BME280;41326;45.302;-122.946;2023-01-30T02:00:42;102496.67;;;18.88;51.77
55460;BME280;41326;45.302;-122.946;2023-01-30T02:03:14;102493.13;;;18.97;52.37
55460;BME280;41326;45.302;-122.946;2023-01-30T02:05:45;102499.31;;;18.95;51.33
55460;BME280;41326;45.302;-122.946;2023-01-30T02:08:15;102503.70;;;18.92;51.16
55460;BME280;41326;45.302;-122.946;2023-01-30T02:10:51;102504.83;;;18.83;51.36
55460;BME280;41326;45.302;-122.946;2023-01-30T02:13:14;102502.98;;;18.79;51.41
55460;BME280;41326;45.302;-122.946;2023-01-30T02:15:44;102499.66;;;18.77;51.00
55460;BME280;41326;45.302;-122.946;2023-01-30T02:18:15;102490.12;;;18.73;50.88
55460;BME280;41326;45.302;-122.946;2023-01-30T02:20:56;102488.81;;;18.65;50.13
55460;BME280;41326;45.302;-122.946;2023-01-30T02:30:58;102494.16;;;18.76;48.16
55460;BME280;41326;45.302;-122.946;2023-01-30T02:33:23;102500.85;;;18.73;49.41
55460;BME280;41326;45.302;-122.946;2023-01-30T02:35:53;102508.99;;;18.71;49.66
55460;BME280;41326;45.302;-122.946;2023-01-30T02:38:28;102519.50;;;18.74;49.74
55460;BME280;41326;45.302;-122.946;2023-01-30T02:40:55;102518.16;;;18.69;49.81
55460;BME280;41326;45.302;-122.946;2023-01-30T02:43:23;102517.94;;;18.70;49.60
55460;BME280;41326;45.302;-122.946;2023-01-30T02:45:54;102517.03;;;18.69;50.09
55460;BME280;41326;45.302;-122.946;2023-01-30T02:48:22;102518.80;;;18.68;50.08
55460;BME280;41326;45.302;-122.946;2023-01-30T02:50:51;102523.30;;;18.61;50.30
55460;BME280;41326;45.302;-122.946;2023-01-30T02:53:19;102523.29;;;18.58;50.09
55460;BME280;41326;45.302;-122.946;2023-01-30T02:55:50;102519.66;;;18.52;49.99
55460;BME280;41326;45.302;-122.946;2023-01-30T02:58:21;102520.51;;;18.48;50.00
55460;BME280;41326;45.302;-122.946;2023-01-30T03:03:29;102515.39;;;18.38;49.33
55460;BME280;41326;45.302;-122.946;2023-01-30T03:06:04;102516.95;;;18.36;49.44
55460;BME280;41326;45.302;-122.946;2023-01-30T03:08:29;102522.84;;;18.33;49.46
55460;BME280;41326;45.302;-122.946;2023-01-30T03:10:58;102518.94;;;18.25;49.95
55460;BME280;41326;45.302;-122.946;2023-01-30T03:13:26;102515.05;;;18.22;50.40
55460;BME280;41326;45.302;-122.946;2023-01-30T03:15:57;102510.00;;;18.22;49.90
55460;BME280;41326;45.302;-122.946;2023-01-30T03:18:23;102510.76;;;18.36;49.66
55460;BME280;41326;45.302;-122.946;2023-01-30T03:20:53;102515.56;;;18.45;49.34
55460;BME280;41326;45.302;-122.946;2023-01-30T03:23:24;102519.81;;;18.44;49.16
55460;BME280;41326;45.302;-122.946;2023-01-30T03:25:55;102522.27;;;18.42;49.29
55460;BME280;41326;45.302;-122.946;2023-01-30T03:28:25;102528.93;;;18.37;49.52
55460;BME280;41326;45.302;-122.946;2023-01-30T03:30:55;102532.71;;;18.29;49.98
55460;BME280;41326;45.302;-122.946;2023-01-30T03:33:25;102535.87;;;18.24;49.96
55460;BME280;41326;45.302;-122.946;2023-01-30T03:35:56;102534.05;;;18.25;49.04
55460;BME280;41326;45.302;-122.946;2023-01-30T03:38:29;102535.18;;;18.32;49.09
55460;BME280;41326;45.302;-122.946;2023-01-30T03:40:56;102531.10;;;18.40;48.99
55460;BME280;41326;45.302;-122.946;2023-01-30T03:43:26;102537.57;;;18.49;48.59
55460;BME280;41326;45.302;-122.946;2023-01-30T03:45:57;102533.66;;;18.49;49.05
55460;BME280;41326;45.302;-122.946;2023-01-30T03:48:27;102531.89;;;18.44;49.38
55460;BME280;41326;45.302;-122.946;2023-01-30T03:50:57;102531.17;;;18.39;49.54
55460;BME280;41326;45.302;-122.946;2023-01-30T03:53:27;102530.88;;;18.35;49.43
55460;BME280;41326;45.302;-122.946;2023-01-30T03:55:58;102534.10;;;18.42;48.95
55460;BME280;41326;45.302;-122.946;2023-01-30T03:58:28;102536.74;;;18.49;48.45
55460;BME280;41326;45.302;-122.946;2023-01-30T04:01:00;102532.45;;;18.55;48.24
55460;BME280;41326;45.302;-122.946;2023-01-30T04:03:28;102531.23;;;18.58;47.96
55460;BME280;41326;45.302;-122.946;2023-01-30T04:05:58;102527.96;;;18.57;48.04
55460;BME280;41326;45.302;-122.946;2023-01-30T04:08:29;102525.44;;;18.51;48.36
55460;BME280;41326;45.302;-122.946;2023-01-30T04:10:59;102522.78;;;18.45;48.58
55460;BME280;41326;45.302;-122.946;2023-01-30T04:13:29;102526.42;;;18.36;48.87
55460;BME280;41326;45.302;-122.946;2023-01-30T04:18:30;102540.89;;;18.31;48.39
55460;BME280;41326;45.302;-122.946;2023-01-30T04:21:00;102546.94;;;18.40;48.50
55460;BME280;41326;45.302;-122.946;2023-01-30T04:23:30;102551.24;;;18.51;47.92
55460;BME280;41326;45.302;-122.946;2023-01-30T04:26:01;102542.52;;;18.57;47.90
55460;BME280;41326;45.302;-122.946;2023-01-30T04:28:31;102538.40;;;18.55;48.01
55460;BME280;41326;45.302;-122.946;2023-01-30T04:31:01;102536.03;;;18.51;48.20
55460;BME280;41326;45.302;-122.946;2023-01-30T04:33:31;102536.99;;;18.46;48.32
55460;BME280;41326;45.302;-122.946;2023-01-30T04:36:03;102538.15;;;18.43;48.68
55460;BME280;41326;45.302;-122.946;2023-01-30T04:38:33;102537.04;;;18.39;48.70
55460;BME280;41326;45.302;-122.946;2023-01-30T04:41:04;102528.63;;;18.33;48.44
55460;BME280;41326;45.302;-122.946;2023-01-30T04:43:33;102529.34;;;18.29;48.15
55460;BME280;41326;45.302;-122.946;2023-01-30T04:46:04;102533.94;;;18.33;48.27
55460;BME280;41326;45.302;-122.946;2023-01-30T04:48:33;102533.04;;;18.40;47.87
55460;BME280;41326;45.302;-122.946;2023-01-30T04:51:04;102530.14;;;18.50;47.30
55460;BME280;41326;45.302;-122.946;2023-01-30T04:53:34;102525.08;;;18.46;47.63
55460;BME280;41326;45.302;-122.946;2023-01-30T04:56:05;102529.08;;;18.39;48.01
55460;BME280;41326;45.302;-122.946;2023-01-30T04:58:35;102525.14;;;18.35;47.69
55460;BME280;41326;45.302;-122.946;2023-01-30T05:01:14;102523.89;;;18.26;47.93
55460;BME280;41326;45.302;-122.946;2023-01-30T05:03:36;102528.68;;;18.22;47.57
55460;BME280;41326;45.302;-122.946;2023-01-30T05:06:06;102534.46;;;18.17;47.63
55460;BME280;41326;45.302;-122.946;2023-01-30T05:08:37;102530.91;;;18.11;47.79
55460;BME280;41326;45.302;-122.946;2023-01-30T05:11:07;102528.44;;;18.06;47.61
55460;BME280;41326;45.302;-122.946;2023-01-30T05:13:37;102525.34;;;18.02;47.59
55460;BME280;41326;45.302;-122.946;2023-01-30T05:16:08;102525.84;;;17.96;47.67
55460;BME280;41326;45.302;-122.946;2023-01-30T05:18:38;102523.55;;;17.89;47.67
55460;BME280;41326;45.302;-122.946;2023-01-30T05:21:10;102518.87;;;17.90;47.44
55460;BME280;41326;45.302;-122.946;2023-01-30T05:23:39;102511.79;;;17.86;47.32
55460;BME280;41326;45.302;-122.946;2023-01-30T05:26:09;102515.61;;;17.82;47.67
55460;BME280;41326;45.302;-122.946;2023-01-30T05:28:40;102513.78;;;17.78;47.82
55460;BME280;41326;45.302;-122.946;2023-01-30T05:31:11;102500.77;;;17.71;48.04
55460;BME280;41326;45.302;-122.946;2023-01-30T05:33:40;102499.28;;;17.71;47.83
55460;BME280;41326;45.302;-122.946;2023-01-30T05:36:12;102500.89;;;17.69;47.91
55460;BME280;41326;45.302;-122.946;2023-01-30T05:38:41;102511.45;;;17.63;48.18
55460;BME280;41326;45.302;-122.946;2023-01-30T05:41:12;102515.88;;;17.61;47.91
55460;BME280;41326;45.302;-122.946;2023-01-30T05:43:41;102515.58;;;17.57;47.93
55460;BME280;41326;45.302;-122.946;2023-01-30T05:46:11;102519.87;;;17.54;48.09
55460;BME280;41326;45.302;-122.946;2023-01-30T05:48:41;102524.02;;;17.50;48.31
55460;BME280;41326;45.302;-122.946;2023-01-30T05:51:16;102523.17;;;17.51;48.38
55460;BME280;41326;45.302;-122.946;2023-01-30T05:53:43;102520.53;;;17.46;48.48
55460;BME280;41326;45.302;-122.946;2023-01-30T05:56:14;102519.05;;;17.49;48.35
55460;BME280;41326;45.302;-122.946;2023-01-30T05:58:42;102514.35;;;17.46;48.48
55460;BME280;41326;45.302;-122.946;2023-01-30T06:01:15;102510.81;;;17.39;48.25
55460;BME280;41326;45.302;-122.946;2023-01-30T06:03:44;102509.62;;;17.35;48.38
55460;BME280;41326;45.302;-122.946;2023-01-30T06:06:16;102508.68;;;17.30;48.51
55460;BME280;41326;45.302;-122.946;2023-01-30T06:08:44;102496.86;;;17.27;48.71
55460;BME280;41326;45.302;-122.946;2023-01-30T06:11:16;102503.45;;;17.23;48.80
55460;BME280;41326;45.302;-122.946;2023-01-30T06:13:45;102503.40;;;17.23;48.72
55460;BME280;41326;45.302;-122.946;2023-01-30T06:16:17;102507.08;;;17.18;48.81
55460;BME280;41326;45.302;-122.946;2023-01-30T06:18:46;102507.75;;;17.16;48.77
55460;BME280;41326;45.302;-122.946;2023-01-30T06:21:16;102500.83;;;17.15;48.75
55460;BME280;41326;45.302;-122.946;2023-01-30T06:23:46;102506.59;;;17.12;48.68
55460;BME280;41326;45.302;-122.946;2023-01-30T06:26:17;102509.20;;;17.12;48.72
55460;BME280;41326;45.302;-122.946;2023-01-30T06:28:47;102512.05;;;17.04;48.88
55460;BME280;41326;45.302;-122.946;2023-01-30T06:31:17;102513.10;;;16.99;48.99
55460;BME280;41326;45.302;-122.946;2023-01-30T06:33:48;102509.17;;;16.98;49.04
55460;BME280;41326;45.302;-122.946;2023-01-30T06:36:18;102511.05;;;16.99;48.97
55460;BME280;41326;45.302;-122.946;2023-01-30T06:38:48;102510.76;;;16.94;49.16
55460;BME280;41326;45.302;-122.946;2023-01-30T06:41:19;102518.19;;;16.90;49.02
55460;BME280;41326;45.302;-122.946;2023-01-30T06:43:50;102519.92;;;16.86;48.98
55460;BME280;41326;45.302;-122.946;2023-01-30T06:46:20;102515.67;;;16.84;49.08
55460;BME280;41326;45.302;-122.946;2023-01-30T06:48:50;102521.42;;;16.82;49.22
55460;BME280;41326;45.302;-122.946;2023-01-30T06:51:21;102522.34;;;16.80;49.16
55460;BME280;41326;45.302;-122.946;2023-01-30T06:53:53;102528.12;;;16.78;49.23
55460;BME280;41326;45.302;-122.946;2023-01-30T06:56:21;102529.23;;;16.78;49.15
55460;BME280;41326;45.302;-122.946;2023-01-30T06:58:51;102529.20;;;16.75;49.29
55460;BME280;41326;45.302;-122.946;2023-01-30T07:01:22;102531.79;;;16.74;49.46
55460;BME280;41326;45.302;-122.946;2023-01-30T07:03:53;102528.22;;;16.71;49.46
55460;BME280;41326;45.302;-122.946;2023-01-30T07:06:23;102526.44;;;16.65;49.59
55460;BME280;41326;45.302;-122.946;2023-01-30T07:08:53;102525.98;;;16.62;49.64
55460;BME280;41326;45.302;-122.946;2023-01-30T07:11:24;102531.62;;;16.62;49.60
55460;BME280;41326;45.302;-122.946;2023-01-30T07:13:54;102531.27;;;16.60;49.62
55460;BME280;41326;45.302;-122.946;2023-01-30T07:16:24;102528.52;;;16.57;49.67
55460;BME280;41326;45.302;-122.946;2023-01-30T07:18:55;102530.83;;;16.55;49.64
55460;BME280;41326;45.302;-122.946;2023-01-30T07:21:25;102531.44;;;16.55;49.46
55460;BME280;41326;45.302;-122.946;2023-01-30T07:23:55;102530.79;;;16.50;49.46
55460;BME280;41326;45.302;-122.946;2023-01-30T07:26:26;102530.93;;;16.41;49.80
55460;BME280;41326;45.302;-122.946;2023-01-30T07:28:56;102529.51;;;16.42;49.79
55460;BME280;41326;45.302;-122.946;2023-01-30T07:31:26;102530.93;;;16.38;49.76
55460;BME280;41326;45.302;-122.946;2023-01-30T07:33:57;102530.64;;;16.33;49.94
55460;BME280;41326;45.302;-122.946;2023-01-30T07:36:27;102526.30;;;16.32;49.99
55460;BME280;41326;45.302;-122.946;2023-01-30T07:38:58;102519.74;;;16.28;49.97
55460;BME280;41326;45.302;-122.946;2023-01-30T07:42:42;102532.30;;;16.22;49.95
55460;BME280;41326;45.302;-122.946;2023-01-30T07:45:13;102530.32;;;16.22;50.04
55460;BME280;41326;45.302;-122.946;2023-01-30T07:47:43;102530.13;;;16.23;49.91
55460;BME280;41326;45.302;-122.946;2023-01-30T07:50:13;102531.24;;;16.22;50.05
55460;BME280;41326;45.302;-122.946;2023-01-30T07:52:44;102529.22;;;16.18;50.12
55460;BME280;41326;45.302;-122.946;2023-01-30T07:55:14;102532.78;;;16.17;50.12
55460;BME280;41326;45.302;-122.946;2023-01-30T07:57:44;102543.65;;;16.15;50.14
55460;BME280;41326;45.302;-122.946;2023-01-30T08:00:15;102556.46;;;16.16;50.12
55460;BME280;41326;45.302;-122.946;2023-01-30T08:02:45;102557.89;;;16.12;50.19
55460;BME280;41326;45.302;-122.946;2023-01-30T08:05:15;102550.07;;;16.07;50.36
55460;BME280;41326;45.302;-122.946;2023-01-30T08:07:46;102545.88;;;16.05;50.40
55460;BME280;41326;45.302;-122.946;2023-01-30T08:10:16;102547.86;;;16.05;50.43
55460;BME280;41326;45.302;-122.946;2023-01-30T08:12:48;102549.04;;;16.05;50.53
55460;BME280;41326;45.302;-122.946;2023-01-30T08:15:17;102549.51;;;16.04;50.67
55460;BME280;41326;45.302;-122.946;2023-01-30T08:17:52;102545.37;;;16.02;50.68
55460;BME280;41326;45.302;-122.946;2023-01-30T08:20:18;102546.57;;;15.97;50.71
55460;BME280;41326;45.302;-122.946;2023-01-30T08:22:48;102541.89;;;16.00;50.43
55460;BME280;41326;45.302;-122.946;2023-01-30T08:25:19;102539.52;;;15.96;50.76
55460;BME280;41326;45.302;-122.946;2023-01-30T08:27:49;102535.93;;;15.93;50.73
55460;BME280;41326;45.302;-122.946;2023-01-30T08:30:19;102534.23;;;15.92;50.81
55460;BME280;41326;45.302;-122.946;2023-01-30T08:32:49;102536.68;;;15.93;50.85
55460;BME280;41326;45.302;-122.946;2023-01-30T08:35:19;102533.23;;;15.91;50.85
55460;BME280;41326;45.302;-122.946;2023-01-30T08:37:50;102526.20;;;15.89;50.95
55460;BME280;41326;45.302;-122.946;2023-01-30T08:40:20;102522.32;;;15.88;50.96
55460;BME280;41326;45.302;-122.946;2023-01-30T08:42:51;102522.24;;;15.87;50.84
55460;BME280;41326;45.302;-122.946;2023-01-30T08:45:22;102520.96;;;15.84;50.86
55460;BME280;41326;45.302;-122.946;2023-01-30T08:47:51;102516.09;;;15.80;51.18
55460;BME280;41326;45.302;-122.946;2023-01-30T08:50:22;102515.38;;;15.83;51.08
55460;BME280;41326;45.302;-122.946;2023-01-30T08:52:53;102513.53;;;15.80;51.03
55460;BME280;41326;45.302;-122.946;2023-01-30T08:55:23;102505.22;;;15.76;51.16
55460;BME280;41326;45.302;-122.946;2023-01-30T08:57:55;102502.92;;;15.75;51.13
55460;BME280;41326;45.302;-122.946;2023-01-30T09:00:26;102504.15;;;15.69;51.34
55460;BME280;41326;45.302;-122.946;2023-01-30T09:02:57;102502.53;;;15.72;51.23
55460;BME280;41326;45.302;-122.946;2023-01-30T09:05:25;102507.58;;;15.63;51.65
55460;BME280;41326;45.302;-122.946;2023-01-30T09:07:55;102494.71;;;15.67;51.43
55460;BME280;41326;45.302;-122.946;2023-01-30T09:10:25;102491.08;;;15.65;51.38
55460;BME280;41326;45.302;-122.946;2023-01-30T09:12:56;102491.02;;;15.58;51.43
55460;BME280;41326;45.302;-122.946;2023-01-30T09:15:26;102498.85;;;15.56;51.64
55460;BME280;41326;45.302;-122.946;2023-01-30T09:17:57;102493.88;;;15.56;51.59
55460;BME280;41326;45.302;-122.946;2023-01-30T09:20:27;102482.83;;;15.50;51.73
55460;BME280;41326;45.302;-122.946;2023-01-30T09:22:57;102477.28;;;15.49;51.70
55460;BME280;41326;45.302;-122.946;2023-01-30T09:25:28;102476.46;;;15.46;51.85
55460;BME280;41326;45.302;-122.946;2023-01-30T09:27:59;102481.64;;;15.45;51.81
55460;BME280;41326;45.302;-122.946;2023-01-30T09:30:29;102475.53;;;15.44;51.86
55460;BME280;41326;45.302;-122.946;2023-01-30T09:32:59;102467.58;;;15.44;51.65
55460;BME280;41326;45.302;-122.946;2023-01-30T09:35:29;102466.52;;;15.43;51.67
55460;BME280;41326;45.302;-122.946;2023-01-30T09:37:59;102465.69;;;15.44;51.54
55460;BME280;41326;45.302;-122.946;2023-01-30T09:40:33;102466.76;;;15.39;51.68
55460;BME280;41326;45.302;-122.946;2023-01-30T09:43:08;102474.21;;;15.38;51.68
55460;BME280;41326;45.302;-122.946;2023-01-30T09:45:38;102471.64;;;15.33;51.88
55460;BME280;41326;45.302;-122.946;2023-01-30T09:48:06;102471.72;;;15.32;51.76
55460;BME280;41326;45.302;-122.946;2023-01-30T09:50:44;102476.09;;;15.30;51.78
55460;BME280;41326;45.302;-122.946;2023-01-30T09:53:10;102481.41;;;15.19;51.98
55460;BME280;41326;45.302;-122.946;2023-01-30T09:55:33;102480.95;;;15.15;52.08
55460;BME280;41326;45.302;-122.946;2023-01-30T09:58:03;102497.30;;;15.18;51.88
55460;BME280;41326;45.302;-122.946;2023-01-30T10:00:37;102494.45;;;15.17;51.81
55460;BME280;41326;45.302;-122.946;2023-01-30T10:03:09;102490.27;;;15.13;51.87
55460;BME280;41326;45.302;-122.946;2023-01-30T10:05:41;102492.38;;;15.13;51.91
55460;BME280;41326;45.302;-122.946;2023-01-30T10:10:46;102498.83;;;15.13;51.79
55460;BME280;41326;45.302;-122.946;2023-01-30T10:13:23;102501.80;;;15.08;51.91
55460;BME280;41326;45.302;-122.946;2023-01-30T10:15:44;102503.60;;;15.06;51.81
55460;BME280;41326;45.302;-122.946;2023-01-30T10:20:43;102509.93;;;14.98;52.02
55460;BME280;41326;45.302;-122.946;2023-01-30T10:23:16;102520.55;;;14.96;52.08
55460;BME280;41326;45.302;-122.946;2023-01-30T10:25:39;102525.04;;;14.93;51.63
55460;BME280;41326;45.302;-122.946;2023-01-30T10:28:11;102530.98;;;14.97;51.29
55460;BME280;41326;45.302;-122.946;2023-01-30T10:30:37;102521.29;;;15.08;50.79
55460;BME280;41326;45.302;-122.946;2023-01-30T10:33:11;102514.85;;;15.16;50.51
55460;BME280;41326;45.302;-122.946;2023-01-30T10:35:40;102509.07;;;15.14;50.46
55460;BME280;41326;45.302;-122.946;2023-01-30T10:38:13;102509.46;;;15.14;50.60
55460;BME280;41326;45.302;-122.946;2023-01-30T10:40:41;102504.15;;;15.09;50.78
55460;BME280;41326;45.302;-122.946;2023-01-30T10:43:15;102503.28;;;15.05;50.83
55460;BME280;41326;45.302;-122.946;2023-01-30T10:45:45;102509.77;;;15.02;51.08
55460;BME280;41326;45.302;-122.946;2023-01-30T10:48:20;102510.08;;;14.98;51.31
55460;BME280;41326;45.302;-122.946;2023-01-30T10:50:46;102506.95;;;14.95;51.28
55460;BME280;41326;45.302;-122.946;2023-01-30T10:53:15;102506.26;;;14.91;50.90
55460;BME280;41326;45.302;-122.946;2023-01-30T10:55:43;102504.63;;;14.96;50.71
55460;BME280;41326;45.302;-122.946;2023-01-30T10:58:18;102506.54;;;15.14;50.10
55460;BME280;41326;45.302;-122.946;2023-01-30T11:00:45;102503.85;;;15.18;49.88
55460;BME280;41326;45.302;-122.946;2023-01-30T11:03:19;102505.82;;;15.18;50.06
55460;BME280;41326;45.302;-122.946;2023-01-30T11:05:47;102506.89;;;15.14;50.03
55460;BME280;41326;45.302;-122.946;2023-01-30T11:08:18;102510.70;;;15.13;50.21
55460;BME280;41326;45.302;-122.946;2023-01-30T11:10:41;102499.75;;;15.06;50.58
55460;BME280;41326;45.302;-122.946;2023-01-30T11:13:18;102508.12;;;15.01;50.71
55460;BME280;41326;45.302;-122.946;2023-01-30T11:15:47;102505.52;;;15.02;50.60
55460;BME280;41326;45.302;-122.946;2023-01-30T11:18:13;102495.63;;;14.93;50.65
55460;BME280;41326;45.302;-122.946;2023-01-30T11:20:45;102486.40;;;14.98;50.26
55460;BME280;41326;45.302;-122.946;2023-01-30T11:23:22;102484.87;;;15.09;50.00
55460;BME280;41326;45.302;-122.946;2023-01-30T11:25:48;102482.97;;;15.14;49.94
55460;BME280;41326;45.302;-122.946;2023-01-30T11:28:18;102483.28;;;15.10;50.01
55460;BME280;41326;45.302;-122.946;2023-01-30T11:30:48;102487.21;;;15.12;49.77
55460;BME280;41326;45.302;-122.946;2023-01-30T11:33:17;102481.93;;;15.05;50.12
55460;BME280;41326;45.302;-122.946;2023-01-30T11:35:53;102483.54;;;15.03;50.32
55460;BME280;41326;45.302;-122.946;2023-01-30T11:38:20;102476.22;;;14.99;50.53
55460;BME280;41326;45.302;-122.946;2023-01-30T11:40:45;102480.30;;;14.92;50.45
55460;BME280;41326;45.302;-122.946;2023-01-30T11:43:17;102481.91;;;14.94;50.28
55460;BME280;41326;45.302;-122.946;2023-01-30T11:45:47;102480.08;;;15.07;49.81
55460;BME280;41326;45.302;-122.946;2023-01-30T11:48:20;102481.37;;;15.17;49.60
55460;BME280;41326;45.302;-122.946;2023-01-30T11:50:49;102484.30;;;15.19;49.56
55460;BME280;41326;45.302;-122.946;2023-01-30T11:53:27;102482.96;;;15.16;49.68
55460;BME280;41326;45.302;-122.946;2023-01-30T11:55:47;102480.04;;;15.12;49.80
55460;BME280;41326;45.302;-122.946;2023-01-30T11:58:19;102475.97;;;15.10;49.92
55460;BME280;41326;45.302;-122.946;2023-01-30T12:00:51;102470.33;;;15.01;50.01
55460;BME280;41326;45.302;-122.946;2023-01-30T12:03:21;102470.52;;;15.03;49.83
55460;BME280;41326;45.302;-122.946;2023-01-30T12:05:50;102471.12;;;15.10;49.42
55460;BME280;41326;45.302;-122.946;2023-01-30T12:08:25;102475.98;;;15.21;49.30
55460;BME280;41326;45.302;-122.946;2023-01-30T12:10:51;102484.05;;;15.25;48.96
55460;BME280;41326;45.302;-122.946;2023-01-30T12:13:27;102489.21;;;15.25;49.09
55460;BME280;41326;45.302;-122.946;2023-01-30T12:15:55;102483.43;;;15.16;49.32
55460;BME280;41326;45.302;-122.946;2023-01-30T12:18:28;102479.39;;;15.11;49.49
55460;BME280;41326;45.302;-122.946;2023-01-30T12:20:55;102483.60;;;15.04;49.89
55460;BME280;41326;45.302;-122.946;2023-01-30T12:23:32;102483.80;;;14.99;49.82
55460;BME280;41326;45.302;-122.946;2023-01-30T12:25:59;102487.52;;;15.06;49.52
55460;BME280;41326;45.302;-122.946;2023-01-30T12:28:29;102475.36;;;15.19;49.22
55460;BME280;41326;45.302;-122.946;2023-01-30T12:30:55;102469.10;;;15.22;49.03
55460;BME280;41326;45.302;-122.946;2023-01-30T12:33:25;102468.24;;;15.20;49.16
55460;BME280;41326;45.302;-122.946;2023-01-30T12:36:05;102455.35;;;15.20;49.16
55460;BME280;41326;45.302;-122.946;2023-01-30T12:38:38;102453.21;;;15.13;49.26
55460;BME280;41326;45.302;-122.946;2023-01-30T12:41:04;102455.86;;;15.07;49.54
55460;BME280;41326;45.302;-122.946;2023-01-30T12:46:06;102460.17;;;14.98;49.94
55460;BME280;41326;45.302;-122.946;2023-01-30T12:48:35;102457.66;;;14.96;49.93
55460;BME280;41326;45.302;-122.946;2023-01-30T12:51:09;102452.41;;;14.89;49.97
55460;BME280;41326;45.302;-122.946;2023-01-30T12:53:39;102456.64;;;14.90;49.76
55460;BME280;41326;45.302;-122.946;2023-01-30T12:58:33;102474.01;;;15.08;49.19